sensor_id;sensor_type;location;lat;lon;timestamp;pressure;altitude;pressure_sealevel;temperature;humidity
60099;BME280;62818;49.394;8.686;2023-01-29T00:00:10;101701.34;;;1.88;72.13
60099;BME280;62818;49.394;8.686;2023-01-29T00:01:11;101700.47;;;1.26;72.02
60099;BME280;62818;49.394;8.686;2023-01-29T00:02:12;101711.09;;;1.23;73.08
60099;BME280;62818;49.394;8.686;2023-01-29T00:03:12;101702.72;;;1.17;72.68
60099;BME280;62818;49.394;8.686;2023-01-29T00:04:13;101683.81;;;3.04;94.08
60099;BME280;62818;49.394;8.686;2023-01-29T00:05:13;101669.66;;;4.01;100.00
60099;BME280;62818;49.394;8.686;2023-01-29T00:06:14;101677.56;;;3.74;98.77
60099;BME280;62818;49.394;8.686;2023-01-29T00:07:15;101673.41;;;5.10;100.00
60099;BME280;62818;49.394;8.686;2023-01-29T00:08:15;101690.31;;;1.83;78.30
60099;BME280;62818;49.394;8.686;2023-01-29T00:09:17;101699.81;;;1.54;76.60
60099;BME280;62818;49.394;8.686;2023-01-29T00:10:18;101706.78;;;1.22;75.15
60099;BME280;62818;49.394;8.686;2023-01-29T00:11:18;101707.22;;;1.30;77.15
60099;BME280;62818;49.394;8.686;2023-01-29T00:12:19;101701.81;;;1.33;76.17
60099;BME280;62818;49.394;8.686;2023-01-29T00:13:20;101698.28;;;1.03;75.41
60099;BME280;62818;49.394;8.686;2023-01-29T00:14:21;101698.06;;;0.91;75.71
60099;BME280;62818;49.394;8.686;2023-01-29T00:15:21;101708.00;;;0.84;75.83
60099;BME280;62818;49.394;8.686;2023-01-29T00:16:23;101710.78;;;0.81;76.01
60099;BME280;62818;49.394;8.686;2023-01-29T00:17:23;101703.25;;;0.75;76.95
60099;BME280;62818;49.394;8.686;2023-01-29T00:18:24;101709.41;;;0.74;76.60
60099;BME280;62818;49.394;8.686;2023-01-29T00:19:26;101712.28;;;0.69;76.41
60099;BME280;62818;49.394;8.686;2023-01-29T00:20:27;101706.28;;;0.67;76.10
60099;BME280;62818;49.394;8.686;2023-01-29T00:21:27;101707.81;;;0.71;76.56
60099;BME280;62818;49.394;8.686;2023-01-29T00:22:30;101702.06;;;0.65;76.54
60099;BME280;62818;49.394;8.686;2023-01-29T00:23:30;101700.38;;;0.64;77.20
60099;BME280;62818;49.394;8.686;2023-01-29T00:24:31;101700.19;;;1.00;76.16
60099;BME280;62818;49.394;8.686;2023-01-29T00:25:31;101702.97;;;0.81;75.48
60099;BME280;62818;49.394;8.686;2023-01-29T00:26:31;101701.66;;;1.05;76.03
60099;BME280;62818;49.394;8.686;2023-01-29T00:27:32;101699.63;;;1.10;74.79
60099;BME280;62818;49.394;8.686;2023-01-29T00:28:33;101694.31;;;1.12;75.42
60099;BME280;62818;49.394;8.686;2023-01-29T00:29:34;101693.56;;;0.94;75.74
60099;BME280;62818;49.394;8.686;2023-01-29T00:30:35;101690.16;;;0.77;75.83
60099;BME280;62818;49.394;8.686;2023-01-29T00:31:36;101688.63;;;0.72;75.72
60099;BME280;62818;49.394;8.686;2023-01-29T00:32:38;101692.06;;;0.73;76.01
60099;BME280;62818;49.394;8.686;2023-01-29T00:33:39;101688.44;;;0.75;76.42
60099;BME280;62818;49.394;8.686;2023-01-29T00:34:40;101693.16;;;0.69;76.22
60099;BME280;62818;49.394;8.686;2023-01-29T00:35:41;101696.22;;;0.77;76.14
60099;BME280;62818;49.394;8.686;2023-01-29T00:36:41;101691.75;;;0.79;76.51
60099;BME280;62818;49.394;8.686;2023-01-29T00:37:44;101696.38;;;0.74;76.06
60099;BME280;62818;49.394;8.686;2023-01-29T00:38:44;101691.44;;;0.85;76.34
60099;BME280;62818;49.394;8.686;2023-01-29T00:39:53;101698.22;;;0.72;76.15
60099;BME280;62818;49.394;8.686;2023-01-29T00:40:54;101693.00;;;0.72;76.79
60099;BME280;62818;49.394;8.686;2023-01-29T00:42:13;101697.75;;;0.81;76.14
60099;BME280;62818;49.394;8.686;2023-01-29T00:43:32;101698.06;;;0.91;76.04
60099;BME280;62818;49.394;8.686;2023-01-29T00:44:51;101706.19;;;1.17;75.51
60099;BME280;62818;49.394;8.686;2023-01-29T00:45:57;101700.66;;;1.23;74.42
60099;BME280;62818;49.394;8.686;2023-01-29T00:46:58;101703.00;;;0.97;74.85
60099;BME280;62818;49.394;8.686;2023-01-29T00:47:58;101704.06;;;1.08;75.28
60099;BME280;62818;49.394;8.686;2023-01-29T00:48:59;101702.47;;;1.21;75.52
60099;BME280;62818;49.394;8.686;2023-01-29T00:50:01;101698.69;;;1.11;75.49
60099;BME280;62818;49.394;8.686;2023-01-29T00:51:04;101701.47;;;1.08;75.89
60099;BME280;62818;49.394;8.686;2023-01-29T00:52:04;101705.53;;;1.14;75.60
60099;BME280;62818;49.394;8.686;2023-01-29T00:53:23;101699.63;;;1.26;75.16
60099;BME280;62818;49.394;8.686;2023-01-29T00:54:23;101690.69;;;1.45;74.15
60099;BME280;62818;49.394;8.686;2023-01-29T00:55:24;101703.56;;;1.02;74.47
60099;BME280;62818;49.394;8.686;2023-01-29T00:56:26;101701.47;;;1.08;75.19
60099;BME280;62818;49.394;8.686;2023-01-29T00:57:29;101697.44;;;1.03;74.76
60099;BME280;62818;49.394;8.686;2023-01-29T00:58:31;101679.03;;;1.67;91.13
60099;BME280;62818;49.394;8.686;2023-01-29T00:59:34;101668.25;;;3.83;100.00
60099;BME280;62818;49.394;8.686;2023-01-29T01:00:35;101681.75;;;2.39;100.00
60099;BME280;62818;49.394;8.686;2023-01-29T01:01:35;101688.31;;;1.57;96.17
60099;BME280;62818;49.394;8.686;2023-01-29T01:02:54;101681.22;;;2.62;100.00
60099;BME280;62818;49.394;8.686;2023-01-29T01:04:09;101674.19;;;3.05;100.00
60099;BME280;62818;49.394;8.686;2023-01-29T01:05:12;101696.09;;;1.58;83.70
60099;BME280;62818;49.394;8.686;2023-01-29T01:06:17;101713.13;;;1.34;77.92
60099;BME280;62818;49.394;8.686;2023-01-29T01:07:18;101710.41;;;1.51;76.56
60099;BME280;62818;49.394;8.686;2023-01-29T01:08:18;101702.81;;;1.78;75.53
60099;BME280;62818;49.394;8.686;2023-01-29T01:09:38;101706.59;;;1.57;72.95
60099;BME280;62818;49.394;8.686;2023-01-29T01:11:01;101703.97;;;1.72;74.61
60099;BME280;62818;49.394;8.686;2023-01-29T01:12:04;101713.94;;;1.34;73.16
60099;BME280;62818;49.394;8.686;2023-01-29T01:13:06;101708.38;;;1.72;72.97
60099;BME280;62818;49.394;8.686;2023-01-29T01:14:07;101708.06;;;1.46;73.43
60099;BME280;62818;49.394;8.686;2023-01-29T01:15:09;101715.66;;;1.35;73.38
60099;BME280;62818;49.394;8.686;2023-01-29T01:16:11;101710.41;;;1.67;73.47
60099;BME280;62818;49.394;8.686;2023-01-29T01:17:16;101709.22;;;1.57;72.46
60099;BME280;62818;49.394;8.686;2023-01-29T01:18:16;101718.34;;;1.49;73.80
60099;BME280;62818;49.394;8.686;2023-01-29T01:19:18;101717.66;;;1.62;72.52
60099;BME280;62818;49.394;8.686;2023-01-29T01:20:19;101714.78;;;1.50;72.79
60099;BME280;62818;49.394;8.686;2023-01-29T01:21:19;101721.22;;;1.29;73.75
60099;BME280;62818;49.394;8.686;2023-01-29T01:22:20;101716.56;;;1.03;74.25
60099;BME280;62818;49.394;8.686;2023-01-29T01:23:20;101716.72;;;1.00;73.92
60099;BME280;62818;49.394;8.686;2023-01-29T01:24:21;101719.94;;;1.05;73.78
60099;BME280;62818;49.394;8.686;2023-01-29T01:25:24;101712.03;;;1.22;73.83
60099;BME280;62818;49.394;8.686;2023-01-29T01:26:26;101706.28;;;1.63;74.83
60099;BME280;62818;49.394;8.686;2023-01-29T01:27:26;101717.31;;;1.52;73.19
60099;BME280;62818;49.394;8.686;2023-01-29T01:28:27;101713.44;;;1.43;71.69
60099;BME280;62818;49.394;8.686;2023-01-29T01:29:27;101712.84;;;1.07;72.99
60099;BME280;62818;49.394;8.686;2023-01-29T01:30:28;101713.59;;;0.94;73.25
60099;BME280;62818;49.394;8.686;2023-01-29T01:31:29;101710.88;;;0.95;72.59
60099;BME280;62818;49.394;8.686;2023-01-29T01:32:29;101709.41;;;1.22;73.26
60099;BME280;62818;49.394;8.686;2023-01-29T01:33:30;101718.94;;;1.08;73.76
60099;BME280;62818;49.394;8.686;2023-01-29T01:34:30;101709.28;;;0.77;73.85
60099;BME280;62818;49.394;8.686;2023-01-29T01:35:31;101710.88;;;0.95;74.40
60099;BME280;62818;49.394;8.686;2023-01-29T01:36:31;101709.06;;;1.28;74.37
60099;BME280;62818;49.394;8.686;2023-01-29T01:37:32;101709.75;;;1.16;73.07
60099;BME280;62818;49.394;8.686;2023-01-29T01:38:32;101703.56;;;1.02;73.64
60099;BME280;62818;49.394;8.686;2023-01-29T01:39:33;101706.16;;;0.86;73.55
60099;BME280;62818;49.394;8.686;2023-01-29T01:40:33;101715.78;;;0.86;74.66
60099;BME280;62818;49.394;8.686;2023-01-29T01:41:34;101712.41;;;1.15;72.84
60099;BME280;62818;49.394;8.686;2023-01-29T01:42:34;101704.66;;;0.98;73.11
60099;BME280;62818;49.394;8.686;2023-01-29T01:45:00;101709.38;;;0.91;74.75
60099;BME280;62818;49.394;8.686;2023-01-29T01:46:03;101704.50;;;1.01;73.83
60099;BME280;62818;49.394;8.686;2023-01-29T01:47:04;101702.91;;;0.98;73.96
60099;BME280;62818;49.394;8.686;2023-01-29T01:48:37;101710.31;;;0.90;74.09
60099;BME280;62818;49.394;8.686;2023-01-29T01:49:31;101711.97;;;0.91;73.65
60099;BME280;62818;49.394;8.686;2023-01-29T01:50:49;101700.38;;;0.97;73.39
60099;BME280;62818;49.394;8.686;2023-01-29T01:51:55;101699.63;;;1.10;74.13
60099;BME280;62818;49.394;8.686;2023-01-29T01:53:00;101703.06;;;1.11;73.07
60099;BME280;62818;49.394;8.686;2023-01-29T01:54:08;101704.25;;;1.05;73.19
60099;BME280;62818;49.394;8.686;2023-01-29T01:55:16;101699.81;;;1.07;73.23
60099;BME280;62818;49.394;8.686;2023-01-29T01:56:25;101711.28;;;1.36;73.37
60099;BME280;62818;49.394;8.686;2023-01-29T01:57:38;101708.56;;;1.22;72.98
60099;BME280;62818;49.394;8.686;2023-01-29T01:58:45;101706.00;;;0.89;72.96
60099;BME280;62818;49.394;8.686;2023-01-29T02:00:03;101710.31;;;0.73;73.93
60099;BME280;62818;49.394;8.686;2023-01-29T02:01:10;101706.81;;;0.74;75.03
60099;BME280;62818;49.394;8.686;2023-01-29T02:02:12;101704.34;;;0.88;73.67
60099;BME280;62818;49.394;8.686;2023-01-29T02:03:49;101702.47;;;0.90;74.00
60099;BME280;62818;49.394;8.686;2023-01-29T02:05:15;101702.78;;;0.84;74.20
60099;BME280;62818;49.394;8.686;2023-01-29T02:06:34;101700.31;;;1.29;73.10
60099;BME280;62818;49.394;8.686;2023-01-29T02:07:57;101709.53;;;1.04;73.72
60099;BME280;62818;49.394;8.686;2023-01-29T02:09:22;101710.75;;;1.29;73.68
60099;BME280;62818;49.394;8.686;2023-01-29T02:10:43;101702.75;;;0.68;73.78
60099;BME280;62818;49.394;8.686;2023-01-29T02:11:45;101703.25;;;0.75;73.97
60099;BME280;62818;49.394;8.686;2023-01-29T02:12:46;101706.38;;;0.49;74.81
60099;BME280;62818;49.394;8.686;2023-01-29T02:13:47;101702.75;;;0.68;75.04
60099;BME280;62818;49.394;8.686;2023-01-29T02:14:52;101703.63;;;0.85;75.12
60099;BME280;62818;49.394;8.686;2023-01-29T02:15:53;101704.19;;;0.74;75.07
60099;BME280;62818;49.394;8.686;2023-01-29T02:16:53;101699.59;;;0.79;74.74
60099;BME280;62818;49.394;8.686;2023-01-29T02:17:54;101704.63;;;0.82;74.22
60099;BME280;62818;49.394;8.686;2023-01-29T02:18:55;101708.22;;;1.12;74.26
60099;BME280;62818;49.394;8.686;2023-01-29T02:20:23;101703.19;;;0.77;74.62
60099;BME280;62818;49.394;8.686;2023-01-29T02:24:40;101707.94;;;0.53;74.96
60099;BME280;62818;49.394;8.686;2023-01-29T02:30:34;101686.09;;;0.71;75.13
60099;BME280;62818;49.394;8.686;2023-01-29T02:32:12;101691.69;;;0.96;73.75
60099;BME280;62818;49.394;8.686;2023-01-29T02:33:29;101692.34;;;0.51;73.82
60099;BME280;62818;49.394;8.686;2023-01-29T02:35:14;101693.53;;;0.46;74.68
60099;BME280;62818;49.394;8.686;2023-01-29T02:36:31;101683.03;;;0.63;74.86
60099;BME280;62818;49.394;8.686;2023-01-29T02:40:42;101678.69;;;0.46;74.09
60099;BME280;62818;49.394;8.686;2023-01-29T02:45:05;101670.56;;;0.52;74.28
60099;BME280;62818;49.394;8.686;2023-01-29T02:46:20;101665.91;;;0.42;75.62
60099;BME280;62818;49.394;8.686;2023-01-29T02:47:39;101664.38;;;0.38;75.33
60099;BME280;62818;49.394;8.686;2023-01-29T02:50:19;101674.34;;;0.95;74.23
60099;BME280;62818;49.394;8.686;2023-01-29T02:51:38;101677.00;;;0.78;73.13
60099;BME280;62818;49.394;8.686;2023-01-29T02:54:50;101674.13;;;0.67;72.66
60099;BME280;62818;49.394;8.686;2023-01-29T02:56:10;101667.75;;;0.72;73.64
60099;BME280;62818;49.394;8.686;2023-01-29T02:57:16;101662.56;;;1.04;74.07
60099;BME280;62818;49.394;8.686;2023-01-29T02:59:47;101666.09;;;1.03;73.72
60099;BME280;62818;49.394;8.686;2023-01-29T03:00:55;101671.81;;;0.94;73.53
60099;BME280;62818;49.394;8.686;2023-01-29T03:02:12;101675.78;;;0.85;73.01
60099;BME280;62818;49.394;8.686;2023-01-29T03:03:25;101672.31;;;0.85;72.84
60099;BME280;62818;49.394;8.686;2023-01-29T03:04:37;101665.06;;;0.74;72.60
60099;BME280;62818;49.394;8.686;2023-01-29T03:06:09;101668.00;;;0.68;73.19
60099;BME280;62818;49.394;8.686;2023-01-29T03:07:37;101672.47;;;0.82;72.98
60099;BME280;62818;49.394;8.686;2023-01-29T03:08:53;101676.69;;;0.84;71.95
60099;BME280;62818;49.394;8.686;2023-01-29T03:09:58;101671.78;;;0.78;72.45
60099;BME280;62818;49.394;8.686;2023-01-29T03:11:06;101669.53;;;0.72;73.06
60099;BME280;62818;49.394;8.686;2023-01-29T03:12:16;101673.28;;;0.66;73.21
60099;BME280;62818;49.394;8.686;2023-01-29T03:14:51;101674.75;;;0.72;74.57
60099;BME280;62818;49.394;8.686;2023-01-29T03:16:52;101669.94;;;0.80;73.18
60099;BME280;62818;49.394;8.686;2023-01-29T03:17:55;101676.84;;;0.65;72.95
60099;BME280;62818;49.394;8.686;2023-01-29T03:19:08;101676.59;;;0.70;73.73
60099;BME280;62818;49.394;8.686;2023-01-29T03:20:18;101677.44;;;0.86;73.59
60099;BME280;62818;49.394;8.686;2023-01-29T03:21:31;101673.50;;;0.79;73.69
60099;BME280;62818;49.394;8.686;2023-01-29T03:23:05;101665.72;;;0.77;73.49
60099;BME280;62818;49.394;8.686;2023-01-29T03:24:12;101679.50;;;0.64;73.66
60099;BME280;62818;49.394;8.686;2023-01-29T03:25:34;101677.34;;;0.72;74.10
60099;BME280;62818;49.394;8.686;2023-01-29T03:27:00;101673.53;;;0.95;74.62
60099;BME280;62818;49.394;8.686;2023-01-29T03:28:23;101674.31;;;0.80;74.02
60099;BME280;62818;49.394;8.686;2023-01-29T03:29:47;101680.19;;;0.67;74.34
60099;BME280;62818;49.394;8.686;2023-01-29T03:31:11;101681.53;;;0.59;74.99
60099;BME280;62818;49.394;8.686;2023-01-29T03:32:32;101684.13;;;0.59;74.96
60099;BME280;62818;49.394;8.686;2023-01-29T03:35:02;101688.84;;;1.16;74.16
60099;BME280;62818;49.394;8.686;2023-01-29T03:36:14;101686.81;;;0.90;73.36
60099;BME280;62818;49.394;8.686;2023-01-29T03:38:03;101689.44;;;0.73;73.43
60099;BME280;62818;49.394;8.686;2023-01-29T03:38:46;101686.09;;;0.71;73.23
60099;BME280;62818;49.394;8.686;2023-01-29T03:39:47;101687.25;;;0.98;73.47
60099;BME280;62818;49.394;8.686;2023-01-29T03:41:20;101692.34;;;0.84;73.47
60099;BME280;62818;49.394;8.686;2023-01-29T03:44:13;101690.69;;;0.99;73.61
60099;BME280;62818;49.394;8.686;2023-01-29T03:45:32;101688.00;;;1.00;73.90
60099;BME280;62818;49.394;8.686;2023-01-29T03:49:56;101692.88;;;1.22;73.98
60099;BME280;62818;49.394;8.686;2023-01-29T03:51:45;101695.59;;;1.36;72.15
60099;BME280;62818;49.394;8.686;2023-01-29T03:52:57;101690.53;;;1.48;71.78
60099;BME280;62818;49.394;8.686;2023-01-29T03:54:18;101696.69;;;1.47;70.87
60099;BME280;62818;49.394;8.686;2023-01-29T03:55:37;101695.22;;;0.95;71.80
60099;BME280;62818;49.394;8.686;2023-01-29T03:56:56;101696.81;;;0.98;71.54
60099;BME280;62818;49.394;8.686;2023-01-29T03:58:32;101700.66;;;1.08;72.40
60099;BME280;62818;49.394;8.686;2023-01-29T03:59:53;101697.19;;;1.07;72.24
60099;BME280;62818;49.394;8.686;2023-01-29T04:01:00;101696.59;;;1.02;73.02
60099;BME280;62818;49.394;8.686;2023-01-29T04:02:15;101697.56;;;0.84;74.52
60099;BME280;62818;49.394;8.686;2023-01-29T04:03:31;101686.75;;;0.59;75.04
60099;BME280;62818;49.394;8.686;2023-01-29T04:04:36;101700.88;;;0.55;75.27
60099;BME280;62818;49.394;8.686;2023-01-29T04:05:55;101697.66;;;0.50;74.52
60099;BME280;62818;49.394;8.686;2023-01-29T04:07:19;101696.75;;;0.34;74.86
60099;BME280;62818;49.394;8.686;2023-01-29T04:08:28;101699.06;;;0.23;75.33
60099;BME280;62818;49.394;8.686;2023-01-29T04:09:37;101696.41;;;0.24;75.04
60099;BME280;62818;49.394;8.686;2023-01-29T04:10:43;101693.53;;;0.29;75.69
60099;BME280;62818;49.394;8.686;2023-01-29T04:11:53;101698.44;;;0.35;75.56
60099;BME280;62818;49.394;8.686;2023-01-29T04:13:05;101703.78;;;0.49;75.62
60099;BME280;62818;49.394;8.686;2023-01-29T04:14:09;101697.97;;;0.44;75.60
60099;BME280;62818;49.394;8.686;2023-01-29T04:15:14;101704.41;;;0.37;75.50
60099;BME280;62818;49.394;8.686;2023-01-29T04:16:20;101699.50;;;0.14;76.58
60099;BME280;62818;49.394;8.686;2023-01-29T04:17:36;101708.09;;;0.16;76.30
60099;BME280;62818;49.394;8.686;2023-01-29T04:18:45;101708.50;;;0.25;76.20
60099;BME280;62818;49.394;8.686;2023-01-29T04:19:46;101714.25;;;0.15;76.28
60099;BME280;62818;49.394;8.686;2023-01-29T04:20:47;101713.16;;;0.19;76.50
60099;BME280;62818;49.394;8.686;2023-01-29T04:21:49;101710.00;;;0.29;76.87
60099;BME280;62818;49.394;8.686;2023-01-29T04:23:05;101703.66;;;0.35;76.16
60099;BME280;62818;49.394;8.686;2023-01-29T04:24:06;101702.28;;;0.28;76.36
60099;BME280;62818;49.394;8.686;2023-01-29T04:25:20;101705.97;;;0.24;76.53
60099;BME280;62818;49.394;8.686;2023-01-29T04:28:17;101708.28;;;0.13;77.01
60099;BME280;62818;49.394;8.686;2023-01-29T04:29:40;101705.19;;;0.39;76.92
60099;BME280;62818;49.394;8.686;2023-01-29T04:31:05;101704.13;;;0.09;76.71
60099;BME280;62818;49.394;8.686;2023-01-29T04:32:48;101703.06;;;0.13;76.84
60099;BME280;62818;49.394;8.686;2023-01-29T04:35:50;101708.09;;;0.50;73.70
60099;BME280;62818;49.394;8.686;2023-01-29T04:38:31;101690.59;;;1.00;73.74
60099;BME280;62818;49.394;8.686;2023-01-29T04:39:54;101688.22;;;0.80;73.55
60099;BME280;62818;49.394;8.686;2023-01-29T04:41:01;101693.06;;;0.55;73.19
60099;BME280;62818;49.394;8.686;2023-01-29T04:42:14;101700.06;;;0.70;73.62
60099;BME280;62818;49.394;8.686;2023-01-29T04:43:26;101692.63;;;0.62;73.21
60099;BME280;62818;49.394;8.686;2023-01-29T04:44:49;101696.03;;;0.80;73.26
60099;BME280;62818;49.394;8.686;2023-01-29T04:46:09;101698.69;;;0.63;72.84
60099;BME280;62818;49.394;8.686;2023-01-29T04:47:44;101700.94;;;0.53;73.65
60099;BME280;62818;49.394;8.686;2023-01-29T04:49:12;101707.97;;;0.68;73.99
60099;BME280;62818;49.394;8.686;2023-01-29T04:50:28;101708.28;;;0.95;73.03
60099;BME280;62818;49.394;8.686;2023-01-29T04:51:57;101699.88;;;0.73;72.88
60099;BME280;62818;49.394;8.686;2023-01-29T04:53:12;101695.16;;;0.64;73.19
60099;BME280;62818;49.394;8.686;2023-01-29T04:54:49;101689.06;;;0.48;73.50
60099;BME280;62818;49.394;8.686;2023-01-29T04:56:16;101694.28;;;0.48;72.99
60099;BME280;62818;49.394;8.686;2023-01-29T04:58:11;101689.19;;;0.62;72.57
60099;BME280;62818;49.394;8.686;2023-01-29T04:59:40;101680.78;;;0.40;74.23
60099;BME280;62818;49.394;8.686;2023-01-29T05:00:47;101683.38;;;0.40;74.65
60099;BME280;62818;49.394;8.686;2023-01-29T05:01:52;101686.16;;;0.37;74.67
60099;BME280;62818;49.394;8.686;2023-01-29T05:02:53;101686.31;;;0.34;75.17
60099;BME280;62818;49.394;8.686;2023-01-29T05:03:56;101676.50;;;0.39;74.87
60099;BME280;62818;49.394;8.686;2023-01-29T05:05:02;101674.81;;;0.38;75.40
60099;BME280;62818;49.394;8.686;2023-01-29T05:06:06;101667.81;;;0.38;75.18
60099;BME280;62818;49.394;8.686;2023-01-29T05:07:13;101666.97;;;0.38;75.47
60099;BME280;62818;49.394;8.686;2023-01-29T05:08:18;101654.50;;;0.27;76.14
60099;BME280;62818;49.394;8.686;2023-01-29T05:09:23;101650.81;;;0.31;75.55
60099;BME280;62818;49.394;8.686;2023-01-29T05:10:25;101655.34;;;0.28;76.08
60099;BME280;62818;49.394;8.686;2023-01-29T05:11:29;101652.78;;;0.11;76.37
60099;BME280;62818;49.394;8.686;2023-01-29T05:12:36;101653.66;;;0.10;75.77
60099;BME280;62818;49.394;8.686;2023-01-29T05:13:38;101666.78;;;0.25;75.87
60099;BME280;62818;49.394;8.686;2023-01-29T05:14:42;101665.75;;;0.45;75.26
60099;BME280;62818;49.394;8.686;2023-01-29T05:16:00;101664.06;;;0.44;75.00
60099;BME280;62818;49.394;8.686;2023-01-29T05:17:15;101668.31;;;0.62;74.87
60099;BME280;62818;49.394;8.686;2023-01-29T05:18:19;101665.63;;;0.31;74.77
60099;BME280;62818;49.394;8.686;2023-01-29T05:19:19;101669.28;;;0.27;75.55
60099;BME280;62818;49.394;8.686;2023-01-29T05:20:20;101662.72;;;0.20;75.74
60099;BME280;62818;49.394;8.686;2023-01-29T05:21:21;101659.03;;;0.24;75.38
60099;BME280;62818;49.394;8.686;2023-01-29T05:22:24;101650.28;;;0.25;75.41
60099;BME280;62818;49.394;8.686;2023-01-29T05:23:26;101654.72;;;0.23;75.19
60099;BME280;62818;49.394;8.686;2023-01-29T05:24:26;101659.91;;;0.40;74.82
60099;BME280;62818;49.394;8.686;2023-01-29T05:25:30;101660.19;;;0.18;75.18
60099;BME280;62818;49.394;8.686;2023-01-29T05:26:32;101666.50;;;0.47;74.26
60099;BME280;62818;49.394;8.686;2023-01-29T05:27:52;101666.22;;;0.53;73.44
60099;BME280;62818;49.394;8.686;2023-01-29T05:29:07;101663.59;;;0.53;73.42
60099;BME280;62818;49.394;8.686;2023-01-29T05:30:08;101666.22;;;0.36;73.88
60099;BME280;62818;49.394;8.686;2023-01-29T05:31:09;101670.28;;;0.41;73.89
60099;BME280;62818;49.394;8.686;2023-01-29T05:32:09;101661.00;;;0.53;74.19
60099;BME280;62818;49.394;8.686;2023-01-29T05:33:23;101673.69;;;0.26;74.59
60099;BME280;62818;49.394;8.686;2023-01-29T05:34:25;101669.47;;;0.24;76.03
60099;BME280;62818;49.394;8.686;2023-01-29T05:35:26;101666.38;;;0.16;75.86
60099;BME280;62818;49.394;8.686;2023-01-29T05:36:27;101669.63;;;0.21;75.86
60099;BME280;62818;49.394;8.686;2023-01-29T05:37:28;101668.75;;;0.20;75.48
60099;BME280;62818;49.394;8.686;2023-01-29T05:38:28;101668.09;;;0.17;75.36
60099;BME280;62818;49.394;8.686;2023-01-29T05:39:29;101674.16;;;0.17;75.26
60099;BME280;62818;49.394;8.686;2023-01-29T05:40:29;101674.31;;;0.47;75.41
60099;BME280;62818;49.394;8.686;2023-01-29T05:41:30;101674.31;;;0.80;74.71
60099;BME280;62818;49.394;8.686;2023-01-29T05:42:31;101689.34;;;0.59;74.35
60099;BME280;62818;49.394;8.686;2023-01-29T05:43:31;101689.59;;;0.54;74.70
60099;BME280;62818;49.394;8.686;2023-01-29T05:44:32;101692.16;;;0.39;75.64
60099;BME280;62818;49.394;8.686;2023-01-29T05:45:32;101682.56;;;0.72;75.56
60099;BME280;62818;49.394;8.686;2023-01-29T05:46:33;101681.31;;;0.79;75.96
60099;BME280;62818;49.394;8.686;2023-01-29T05:47:33;101680.06;;;0.86;75.56
60099;BME280;62818;49.394;8.686;2023-01-29T05:48:34;101684.72;;;0.97;74.99
60099;BME280;62818;49.394;8.686;2023-01-29T05:49:34;101694.34;;;0.63;75.29
60099;BME280;62818;49.394;8.686;2023-01-29T05:50:35;101695.44;;;0.42;75.88
60099;BME280;62818;49.394;8.686;2023-01-29T05:51:35;101686.78;;;0.42;76.06
60099;BME280;62818;49.394;8.686;2023-01-29T05:52:36;101685.69;;;0.46;76.32
60099;BME280;62818;49.394;8.686;2023-01-29T05:53:36;101687.13;;;0.51;75.87
60099;BME280;62818;49.394;8.686;2023-01-29T05:54:37;101680.78;;;0.40;76.21
60099;BME280;62818;49.394;8.686;2023-01-29T05:55:37;101691.72;;;0.31;76.48
60099;BME280;62818;49.394;8.686;2023-01-29T05:56:38;101686.25;;;0.35;77.17
60099;BME280;62818;49.394;8.686;2023-01-29T05:57:39;101690.31;;;0.41;77.15
60099;BME280;62818;49.394;8.686;2023-01-29T05:58:40;101694.13;;;0.34;76.94
60099;BME280;62818;49.394;8.686;2023-01-29T05:59:41;101691.97;;;0.59;77.30
60099;BME280;62818;49.394;8.686;2023-01-29T06:00:41;101692.06;;;0.40;77.28
60099;BME280;62818;49.394;8.686;2023-01-29T06:01:42;101693.00;;;0.72;76.85
60099;BME280;62818;49.394;8.686;2023-01-29T06:02:42;101692.19;;;0.54;77.59
60099;BME280;62818;49.394;8.686;2023-01-29T06:03:44;101687.06;;;0.53;77.97
60099;BME280;62818;49.394;8.686;2023-01-29T06:04:44;101686.50;;;0.63;78.04
60099;BME280;62818;49.394;8.686;2023-01-29T06:05:45;101687.03;;;0.70;78.37
60099;BME280;62818;49.394;8.686;2023-01-29T06:06:45;101679.75;;;0.92;77.25
60099;BME280;62818;49.394;8.686;2023-01-29T06:07:46;101676.69;;;0.84;76.31
60099;BME280;62818;49.394;8.686;2023-01-29T06:08:46;101680.00;;;1.03;76.58
60099;BME280;62818;49.394;8.686;2023-01-29T06:09:47;101676.78;;;0.98;75.87
60099;BME280;62818;49.394;8.686;2023-01-29T06:10:47;101672.56;;;0.96;75.91
60099;BME280;62818;49.394;8.686;2023-01-29T06:11:48;101678.41;;;1.16;75.03
60099;BME280;62818;49.394;8.686;2023-01-29T06:12:48;101673.31;;;0.82;74.95
60099;BME280;62818;49.394;8.686;2023-01-29T06:13:49;101673.28;;;0.66;74.34
60099;BME280;62818;49.394;8.686;2023-01-29T06:14:50;101671.25;;;0.56;75.17
60099;BME280;62818;49.394;8.686;2023-01-29T06:15:50;101674.25;;;0.81;74.70
60099;BME280;62818;49.394;8.686;2023-01-29T06:16:50;101658.25;;;0.87;75.72
60099;BME280;62818;49.394;8.686;2023-01-29T06:17:54;101665.22;;;0.71;75.14
60099;BME280;62818;49.394;8.686;2023-01-29T06:18:56;101662.25;;;0.61;76.09
60099;BME280;62818;49.394;8.686;2023-01-29T06:19:56;101665.69;;;0.62;74.78
60099;BME280;62818;49.394;8.686;2023-01-29T06:21:04;101668.19;;;0.48;74.07
60099;BME280;62818;49.394;8.686;2023-01-29T06:22:06;101670.44;;;0.71;74.43
60099;BME280;62818;49.394;8.686;2023-01-29T06:23:07;101677.06;;;0.61;75.11
60099;BME280;62818;49.394;8.686;2023-01-29T06:24:07;101670.72;;;0.49;75.58
60099;BME280;62818;49.394;8.686;2023-01-29T06:25:08;101672.25;;;0.53;74.99
60099;BME280;62818;49.394;8.686;2023-01-29T06:26:13;101677.88;;;0.46;75.01
60099;BME280;62818;49.394;8.686;2023-01-29T06:27:15;101680.81;;;0.55;74.96
60099;BME280;62818;49.394;8.686;2023-01-29T06:28:15;101677.59;;;0.35;75.54
60099;BME280;62818;49.394;8.686;2023-01-29T06:29:15;101680.59;;;0.60;76.00
60099;BME280;62818;49.394;8.686;2023-01-29T06:30:16;101676.94;;;0.47;74.01
60099;BME280;62818;49.394;8.686;2023-01-29T06:31:17;101685.09;;;0.41;73.61
60099;BME280;62818;49.394;8.686;2023-01-29T06:32:17;101676.75;;;0.67;74.20